PPOIG EKCH-KTEB
Flight info
| Callsign | PPOIG |
|---|---|
| Flight time | N/A |
| Altitude | 36000 |
| Route | ODDON P60 NUGLO DCT GOLUM DCT GIVEM DCT TRN DCT LUTOV DCT RESNO/M083F360 DCT 56N020W 56N030W 56N040W 55N050W DCT LOMSI/N0490F380 N662C TOPPS/N0480F400 Q913 CABCI Q29 JHW LVZ5 |
| Aircraft | GLF6/M-SFGHIRWXY/S |
Departure
| Time | 2026-05-04 18:39 |
|---|---|
| Airport | Copenhagen Kastrup Airport (EKCH) |
Arrival
| Time | N/A |
|---|---|
| Airport | Teterboro Airport (KTEB) |
| Time | Latitude | Longitude | Altitude | Speed | Heading |
|---|---|---|---|---|---|
| 2026-05-04 17:57 | 55.61517 | 12.67471 | 11 ft | 0 kts | 40° |
| 2026-05-04 18:26 | 55.61518 | 12.67471 | 11 ft | 0 kts | 40° |
| 2026-05-04 18:26 | 55.61540 | 12.67464 | 11 ft | 6 kts | 295° |
| 2026-05-04 18:26 | 55.61532 | 12.67320 | 8 ft | 14 kts | 257° |
| 2026-05-04 18:27 | 55.61498 | 12.67171 | 8 ft | 10 kts | 232° |
| 2026-05-04 18:27 | 55.61448 | 12.67086 | 8 ft | 9 kts | 219° |
| 2026-05-04 18:27 | 55.61412 | 12.67037 | 8 ft | 5 kts | 209° |
| 2026-05-04 18:27 | 55.61382 | 12.66981 | 8 ft | 10 kts | 274° |
| 2026-05-04 18:28 | 55.61435 | 12.66824 | 8 ft | 16 kts | 305° |
| 2026-05-04 18:28 | 55.61520 | 12.66633 | 8 ft | 24 kts | 321° |
| 2026-05-04 18:28 | 55.61715 | 12.66471 | 8 ft | 28 kts | 343° |
| 2026-05-04 18:28 | 55.61771 | 12.66410 | 8 ft | 3 kts | 235° |
| 2026-05-04 18:29 | 55.61749 | 12.66393 | 8 ft | 4 kts | 201° |
| 2026-05-04 18:29 | 55.61706 | 12.66362 | 8 ft | 9 kts | 211° |
| 2026-05-04 18:29 | 55.61653 | 12.66246 | 8 ft | 15 kts | 239° |
| 2026-05-04 18:29 | 55.61634 | 12.66047 | 11 ft | 18 kts | 288° |
| 2026-05-04 18:30 | 55.61707 | 12.65826 | 11 ft | 0 kts | 304° |
| 2026-05-04 18:31 | 55.61729 | 12.65770 | 13 ft | 19 kts | 304° |
| 2026-05-04 18:31 | 55.61794 | 12.65588 | 15 ft | 9 kts | 303° |
| 2026-05-04 18:31 | 55.61828 | 12.65498 | 15 ft | 8 kts | 303° |
| 2026-05-04 18:32 | 55.61856 | 12.65421 | 15 ft | 6 kts | 303° |
| 2026-05-04 18:32 | 55.61881 | 12.65356 | 15 ft | 8 kts | 303° |
| 2026-05-04 18:32 | 55.61929 | 12.65225 | 15 ft | 14 kts | 304° |
| 2026-05-04 18:32 | 55.61941 | 12.65193 | 15 ft | 0 kts | 303° |
| 2026-05-04 18:33 | 55.61945 | 12.65184 | 15 ft | 4 kts | 303° |
| 2026-05-04 18:34 | 55.61998 | 12.65040 | 15 ft | 17 kts | 303° |
| 2026-05-04 18:34 | 55.62049 | 12.64902 | 15 ft | 9 kts | 303° |
| 2026-05-04 18:34 | 55.62083 | 12.64808 | 15 ft | 8 kts | 303° |
| 2026-05-04 18:34 | 55.62110 | 12.64733 | 15 ft | 6 kts | 301° |
| 2026-05-04 18:35 | 55.62111 | 12.64660 | 15 ft | 6 kts | 234° |
| 2026-05-04 18:35 | 55.62076 | 12.64618 | 15 ft | 6 kts | 213° |
| 2026-05-04 18:35 | 55.62040 | 12.64576 | 15 ft | 6 kts | 214° |
| 2026-05-04 18:35 | 55.62001 | 12.64530 | 15 ft | 7 kts | 215° |
| 2026-05-04 18:36 | 55.61959 | 12.64451 | 15 ft | 10 kts | 240° |
| 2026-05-04 18:36 | 55.61943 | 12.64310 | 16 ft | 12 kts | 263° |
| 2026-05-04 18:36 | 55.61924 | 12.64148 | 18 ft | 14 kts | 253° |
| 2026-05-04 18:36 | 55.61856 | 12.64070 | 19 ft | 10 kts | 184° |
| 2026-05-04 18:37 | 55.61794 | 12.64073 | 20 ft | 8 kts | 178° |
| 2026-05-04 18:37 | 55.61742 | 12.64078 | 20 ft | 6 kts | 176° |
| 2026-05-04 18:37 | 55.61700 | 12.64083 | 20 ft | 5 kts | 176° |
| 2026-05-04 18:37 | 55.61668 | 12.64087 | 20 ft | 4 kts | 176° |
| 2026-05-04 18:38 | 55.61637 | 12.64082 | 20 ft | 6 kts | 199° |
| 2026-05-04 18:38 | 55.61579 | 12.64001 | 19 ft | 16 kts | 221° |
| 2026-05-04 18:38 | 55.61292 | 12.63553 | 20 ft | 102 kts | 223° |
| 2026-05-04 18:38 | 55.60545 | 12.62409 | 49 ft | 174 kts | 223° |
| 2026-05-04 18:39 | 55.59528 | 12.60825 | 410 ft | 216 kts | 225° |
| 2026-05-04 18:39 | 55.58428 | 12.59024 | 1250 ft | 218 kts | 225° |
| 2026-05-04 18:39 | 55.57425 | 12.57506 | 2695 ft | 199 kts | 229° |
| 2026-05-04 18:39 | 55.56840 | 12.55035 | 2930 ft | 237 kts | 274° |
| 2026-05-04 18:40 | 55.57006 | 12.52171 | 4072 ft | 243 kts | 275° |
| 2026-05-04 18:40 | 55.57150 | 12.49212 | 5244 ft | 250 kts | 276° |
| 2026-05-04 18:40 | 55.57297 | 12.46171 | 6456 ft | 255 kts | 276° |
| 2026-05-04 18:40 | 55.57442 | 12.43023 | 6961 ft | 260 kts | 275° |
| 2026-05-04 18:41 | 55.57584 | 12.39810 | 6992 ft | 261 kts | 275° |
| 2026-05-04 18:41 | 55.57722 | 12.36633 | 6990 ft | 259 kts | 275° |
| 2026-05-04 18:41 | 55.57857 | 12.33486 | 6989 ft | 257 kts | 274° |
| 2026-05-04 18:41 | 55.57983 | 12.30340 | 7014 ft | 258 kts | 274° |
| 2026-05-04 18:42 | 55.58086 | 12.27153 | 6991 ft | 257 kts | 273° |
| 2026-05-04 18:42 | 55.58189 | 12.23953 | 7316 ft | 274 kts | 273° |
| 2026-05-04 18:42 | 55.58291 | 12.20781 | 9005 ft | 260 kts | 273° |
| 2026-05-04 18:42 | 55.58390 | 12.17630 | 10192 ft | 263 kts | 272° |
| 2026-05-04 18:43 | 55.58486 | 12.14566 | 10519 ft | 294 kts | 272° |
| 2026-05-04 18:43 | 55.58609 | 12.10581 | 11250 ft | 316 kts | 272° |
| 2026-05-04 18:43 | 55.58729 | 12.06667 | 12216 ft | 326 kts | 272° |
| 2026-05-04 18:43 | 55.58852 | 12.02620 | 13329 ft | 333 kts | 272° |
| 2026-05-04 18:44 | 55.58975 | 11.98513 | 14487 ft | 337 kts | 272° |
| 2026-05-04 18:44 | 55.59057 | 11.95758 | 15206 ft | 341 kts | 272° |
| 2026-05-04 18:44 | 55.59220 | 11.90208 | 16657 ft | 348 kts | 272° |
| 2026-05-04 18:44 | 55.59345 | 11.85940 | 17776 ft | 353 kts | 272° |
| 2026-05-04 18:45 | 55.59468 | 11.81619 | 18765 ft | 358 kts | 272° |
| 2026-05-04 18:45 | 55.59592 | 11.77240 | 18928 ft | 356 kts | 272° |
| 2026-05-04 18:45 | 55.59714 | 11.72876 | 18946 ft | 358 kts | 272° |
| 2026-05-04 18:45 | 55.59835 | 11.68483 | 18945 ft | 359 kts | 272° |
| 2026-05-04 18:46 | 55.59956 | 11.64069 | 18945 ft | 359 kts | 272° |
| 2026-05-04 18:46 | 55.60073 | 11.59702 | 18946 ft | 359 kts | 272° |
| 2026-05-04 18:46 | 55.60191 | 11.55249 | 18944 ft | 360 kts | 272° |
| 2026-05-04 18:46 | 55.60305 | 11.50898 | 18945 ft | 360 kts | 272° |
| 2026-05-04 18:47 | 55.60420 | 11.46449 | 18944 ft | 360 kts | 272° |
| 2026-05-04 18:47 | 55.60532 | 11.42005 | 18958 ft | 365 kts | 272° |
| 2026-05-04 18:47 | 55.60560 | 11.37464 | 20060 ft | 367 kts | 268° |
| 2026-05-04 18:47 | 55.60422 | 11.32961 | 21040 ft | 373 kts | 266° |
| 2026-05-04 18:48 | 55.60274 | 11.28361 | 22055 ft | 379 kts | 266° |
| 2026-05-04 18:48 | 55.60125 | 11.23719 | 23019 ft | 384 kts | 266° |
| 2026-05-04 18:48 | 55.59971 | 11.18977 | 23959 ft | 390 kts | 266° |
| 2026-05-04 18:48 | 55.59813 | 11.14160 | 24903 ft | 396 kts | 266° |
| 2026-05-04 18:49 | 55.59652 | 11.09325 | 25846 ft | 400 kts | 266° |
| 2026-05-04 18:49 | 55.59485 | 11.04346 | 26726 ft | 406 kts | 266° |
| 2026-05-04 18:49 | 55.59316 | 10.99379 | 27634 ft | 409 kts | 266° |
| 2026-05-04 18:49 | 55.59143 | 10.94360 | 27941 ft | 410 kts | 266° |
| 2026-05-04 18:50 | 55.58966 | 10.89311 | 27951 ft | 413 kts | 266° |
| 2026-05-04 18:50 | 55.58788 | 10.84256 | 27947 ft | 415 kts | 266° |
| 2026-05-04 18:50 | 55.58607 | 10.79178 | 27949 ft | 414 kts | 266° |
| 2026-05-04 18:50 | 55.58425 | 10.74124 | 27956 ft | 418 kts | 266° |
| 2026-05-04 18:51 | 55.58237 | 10.68985 | 28858 ft | 420 kts | 266° |
| 2026-05-04 18:51 | 55.58287 | 10.63796 | 29489 ft | 427 kts | 278° |
| 2026-05-04 18:51 | 55.58828 | 10.58604 | 30370 ft | 429 kts | 279° |
| 2026-05-04 18:51 | 55.59381 | 10.53380 | 31030 ft | 434 kts | 279° |
| 2026-05-04 18:52 | 55.59948 | 10.48111 | 31770 ft | 436 kts | 279° |
| 2026-05-04 18:52 | 55.60103 | 10.42792 | 32519 ft | 434 kts | 269° |
| 2026-05-04 18:52 | 55.60074 | 10.37508 | 33264 ft | 435 kts | 269° |
| 2026-05-04 18:52 | 55.60031 | 10.32199 | 34080 ft | 433 kts | 269° |
| 2026-05-04 18:53 | 55.59983 | 10.26902 | 34767 ft | 433 kts | 269° |